Terminal Aerodrome Forecast
Issued by NWS

Home | Current Version | Previous Version | Text Only | Print | Product List | Glossary On
Versions: 1 2 3 4 5 6 7 8 9 10 11 12 13 14 15 16 17 18 19 20 21 22 23 24 25 26 27
000
FTUS41 KCAR 220540
TAFPQI
TAF
KPQI 220540Z 2206/2306 17008KT P6SM VCSH OVC050
     FM221400 07007KT 3SM -SNRA OVC015
     FM221700 05012G18KT 3SM -RA OVC008
     FM230300 04008KT 2SM -RASN OVC008=

USA.gov is the U.S. government's official web portal to all federal, state and local government web resources and services.